Time;durP1;ratioP1;P1;durP2;ratioP2;P2;SDS_P1;SDS_P2;PMS_P1;PMS_P2;Temp;Humidity;BMP_temperature;BMP_pressure;BME280_temperature;BME280_humidity;BME280_pressure;Samples;Min_cycle;Max_cycle;Signal;HPM_P1;HPM_P2
2021/12/15 00:00:28;;;;;;;;;;;9.60;99.90;;;;;;5134617;27;20253;-87
2021/12/15 00:02:54;;;;;;;;;;;9.60;99.90;;;;;;5132330;27;19931;-87
2021/12/15 00:05:22;;;;;;;;;;;9.60;99.90;;;;;;5099998;28;19924;-87
2021/12/15 00:07:50;;;;;;;;;;;9.70;99.90;;;;;;5105815;27;19931;-88
2021/12/15 00:10:17;;;;;;;;;;;9.70;99.90;;;;;;5115262;27;20006;-89
2021/12/15 00:12:42;;;;;;;;;;;9.70;99.90;;;;;;5114990;27;19985;-88
2021/12/15 00:15:08;;;;;;;;;;;9.70;99.90;;;;;;5099110;28;19993;-88
2021/12/15 00:17:35;;;;;;;;;;;9.70;99.90;;;;;;5100748;27;20284;-88
2021/12/15 00:20:01;;;;;;;;;;;9.70;99.90;;;;;;5088631;28;19935;-86
2021/12/15 00:22:27;;;;;;;;;;;9.70;99.90;;;;;;5116317;27;19923;-86
2021/12/15 00:24:52;;;;;;;;;;;9.70;99.90;;;;;;5116496;27;20022;-87
2021/12/15 00:27:18;;;;;;;;;;;9.80;99.90;;;;;;5118455;27;19929;-87
2021/12/15 00:29:44;;;;;;;;;;;9.70;99.90;;;;;;5111388;27;19927;-87
2021/12/15 00:32:09;;;;;;;;;;;9.80;99.90;;;;;;5118050;27;19924;-86
2021/12/15 00:34:37;;;;;;;;;;;9.80;99.90;;;;;;5128625;27;19924;-86
2021/12/15 00:37:04;;;;;;;;;;;9.90;99.90;;;;;;5100909;27;19923;-86
2021/12/15 00:39:30;;;;;;;;;;;9.90;99.90;;;;;;5112230;27;20009;-86
2021/12/15 00:41:57;;;;;;;;;;;9.80;99.90;;;;;;5088536;27;19920;-86
2021/12/15 00:44:22;;;;;;;;;;;9.90;99.90;;;;;;5121425;27;19923;-86
2021/12/15 00:46:50;;;;;;;;;;;9.80;99.90;;;;;;5118468;27;20263;-86
2021/12/15 00:49:16;;;;;;;;;;;9.90;99.90;;;;;;5104249;27;20331;-87
2021/12/15 00:51:42;;;;;;;;;;;9.90;99.90;;;;;;5106198;27;19930;-87
2021/12/15 00:54:08;;;;;;;;;;;9.90;99.90;;;;;;5100578;27;20010;-87
2021/12/15 00:56:34;;;;;;;;;;;9.90;99.90;;;;;;5129444;27;20368;-87
2021/12/15 00:59:00;;;;;;;;;;;9.90;99.90;;;;;;5101679;27;19968;-87
2021/12/15 01:01:27;;;;;;;;;;;9.90;99.90;;;;;;5113284;27;19924;-87
2021/12/15 01:03:53;;;;;;;;;;;10.00;99.90;;;;;;5118498;27;19923;-87
2021/12/15 01:06:21;;;;;;;;;;;9.90;99.90;;;;;;5096326;27;20379;-88
2021/12/15 01:08:52;;;;;;;;;;;9.90;99.90;;;;;;5120294;27;20406;-88
2021/12/15 01:22:05;;;;;;;;;;;9.90;99.90;;;;;;5133285;27;20013;-87
2021/12/15 01:24:30;;;;;;;;;;;9.90;99.90;;;;;;5120030;27;20387;-88
2021/12/15 01:26:56;;;;;;;;;;;9.90;99.90;;;;;;5121390;27;19928;-87
2021/12/15 01:29:22;;;;;;;;;;;9.90;99.90;;;;;;5100194;27;19927;-87
2021/12/15 01:31:47;;;;;;;;;;;9.90;99.90;;;;;;5105272;27;19931;-87
2021/12/15 01:34:13;;;;;;;;;;;10.00;99.90;;;;;;5110865;27;19935;-87
2021/12/15 01:36:38;;;;;;;;;;;10.00;99.90;;;;;;5131584;27;19962;-87
2021/12/15 01:39:05;;;;;;;;;;;9.90;99.90;;;;;;5125345;27;20368;-88
2021/12/15 01:41:30;;;;;;;;;;;9.90;99.90;;;;;;5124454;27;19931;-87
2021/12/15 01:49:17;;;;;;;;;;;9.90;99.90;;;;;;5134061;27;19923;-88
2021/12/15 01:51:43;;;;;;;;;;;10.00;99.90;;;;;;5146600;27;19923;-87
2021/12/15 01:54:09;;;;;;;;;;;10.00;99.90;;;;;;5115269;27;19973;-87
2021/12/15 01:56:35;;;;;;;;;;;10.00;99.90;;;;;;5129528;27;20014;-87
2021/12/15 01:59:01;;;;;;;;;;;9.90;99.90;;;;;;5120687;28;20019;-87
2021/12/15 02:01:26;;;;;;;;;;;10.00;99.90;;;;;;5129895;27;20390;-87
2021/12/15 02:03:53;;;;;;;;;;;9.90;99.90;;;;;;5125609;27;19945;-87
2021/12/15 02:06:18;;;;;;;;;;;9.90;99.90;;;;;;5111718;28;20279;-87
2021/12/15 02:08:45;;;;;;;;;;;9.90;99.90;;;;;;5109229;27;19927;-87
2021/12/15 02:11:10;;;;;;;;;;;9.90;99.90;;;;;;5136674;27;20022;-87
2021/12/15 02:13:37;;;;;;;;;;;9.90;99.90;;;;;;5116331;27;20003;-87
2021/12/15 02:16:05;;;;;;;;;;;9.90;99.90;;;;;;5082726;28;19968;-87
2021/12/15 02:18:31;;;;;;;;;;;9.90;99.90;;;;;;5114805;27;19927;-87
2021/12/15 02:21:02;;;;;;;;;;;9.90;99.90;;;;;;5122507;28;19930;-88
2021/12/15 02:23:34;;;;;;;;;;;9.90;99.90;;;;;;5116510;27;19930;-87
2021/12/15 02:26:01;;;;;;;;;;;9.90;99.90;;;;;;5140181;27;20290;-87
2021/12/15 02:28:27;;;;;;;;;;;9.90;99.90;;;;;;5119483;27;19946;-87
2021/12/15 02:31:04;;;;;;;;;;;9.90;99.90;;;;;;5117854;27;20355;-87
2021/12/15 02:33:50;;;;;;;;;;;9.90;99.90;;;;;;5118895;27;19923;-87
2021/12/15 02:37:17;;;;;;;;;;;9.90;99.90;;;;;;5107006;27;19923;-87
2021/12/15 02:39:11;;;;;;;;;;;9.90;99.90;;;;;;5118318;27;20295;-87
2021/12/15 02:41:38;;;;;;;;;;;9.90;99.90;;;;;;5108186;27;19927;-87
2021/12/15 02:44:06;;;;;;;;;;;9.90;99.90;;;;;;5136402;27;19988;-87
2021/12/15 02:46:33;;;;;;;;;;;9.80;99.90;;;;;;5120142;27;20378;-87
2021/12/15 02:48:58;;;;;;;;;;;9.90;99.90;;;;;;5101628;27;19927;-87
2021/12/15 02:51:24;;;;;;;;;;;9.90;99.90;;;;;;5125165;27;19923;-88
2021/12/15 02:53:50;;;;;;;;;;;9.90;99.90;;;;;;5119265;27;19923;-87
2021/12/15 02:56:16;;;;;;;;;;;9.90;99.90;;;;;;5100990;28;19923;-87
2021/12/15 02:58:50;;;;;;;;;;;9.90;99.90;;;;;;5104327;28;19924;-87
2021/12/15 03:01:23;;;;;;;;;;;9.90;99.90;;;;;;5099034;28;19949;-87
2021/12/15 03:07:15;;;;;;;;;;;9.90;99.90;;;;;;5127349;27;19923;-88
2021/12/15 03:17:31;;;;;;;;;;;9.90;99.90;;;;;;5123550;27;19969;-88
2021/12/15 03:19:57;;;;;;;;;;;9.90;99.90;;;;;;5129406;27;19967;-87
2021/12/15 03:22:23;;;;;;;;;;;9.90;99.90;;;;;;5119155;27;20364;-88
2021/12/15 03:24:49;;;;;;;;;;;9.90;99.90;;;;;;5119528;27;19923;-87
2021/12/15 03:27:19;;;;;;;;;;;10.00;99.90;;;;;;5115590;27;19927;-87
2021/12/15 03:37:46;;;;;;;;;;;9.90;99.90;;;;;;5134482;27;19923;-87
2021/12/15 03:40:37;;;;;;;;;;;9.90;99.90;;;;;;5118904;27;19923;-87
2021/12/15 03:43:05;;;;;;;;;;;10.00;99.90;;;;;;5119436;27;20374;-87
2021/12/15 03:45:32;;;;;;;;;;;9.90;99.90;;;;;;5136315;27;20290;-88
2021/12/15 03:47:59;;;;;;;;;;;10.00;99.90;;;;;;5118785;27;19924;-88
2021/12/15 03:50:25;;;;;;;;;;;9.90;99.90;;;;;;5134213;27;19924;-88
2021/12/15 03:52:51;;;;;;;;;;;9.90;99.90;;;;;;5118799;27;20410;-87
2021/12/15 03:55:18;;;;;;;;;;;9.90;99.90;;;;;;5135996;27;19923;-88
2021/12/15 03:57:44;;;;;;;;;;;9.90;99.90;;;;;;5136035;27;19933;-88
2021/12/15 04:00:11;;;;;;;;;;;9.90;99.90;;;;;;5118974;27;20010;-87
2021/12/15 04:02:37;;;;;;;;;;;9.90;99.90;;;;;;5119071;27;20329;-88
2021/12/15 04:05:04;;;;;;;;;;;9.90;99.90;;;;;;5136370;27;19974;-88
2021/12/15 04:07:30;;;;;;;;;;;9.90;99.90;;;;;;5135572;27;19972;-88
2021/12/15 04:09:55;;;;;;;;;;;9.90;99.90;;;;;;5109923;28;20319;-88
2021/12/15 04:12:22;;;;;;;;;;;9.80;99.90;;;;;;5115172;28;20280;-87
2021/12/15 04:14:55;;;;;;;;;;;9.90;99.90;;;;;;5098421;28;20348;-88
2021/12/15 04:17:30;;;;;;;;;;;9.90;99.90;;;;;;5098131;28;19931;-88
2021/12/15 04:19:58;;;;;;;;;;;9.90;99.90;;;;;;5129112;27;19962;-88
2021/12/15 04:22:24;;;;;;;;;;;9.90;99.90;;;;;;5098182;28;19923;-88
2021/12/15 04:24:50;;;;;;;;;;;9.90;99.90;;;;;;5098127;28;20014;-88
2021/12/15 04:27:17;;;;;;;;;;;9.90;99.90;;;;;;5080882;28;19924;-88
2021/12/15 04:29:44;;;;;;;;;;;9.80;99.90;;;;;;5129009;27;19924;-88
2021/12/15 04:32:13;;;;;;;;;;;9.80;99.90;;;;;;5118377;27;19923;-88
2021/12/15 04:34:39;;;;;;;;;;;9.90;99.90;;;;;;5116602;27;19991;-87
2021/12/15 04:37:05;;;;;;;;;;;9.80;99.90;;;;;;5121775;27;19923;-88
2021/12/15 04:39:31;;;;;;;;;;;9.90;99.90;;;;;;5121309;27;20394;-86
2021/12/15 04:41:57;;;;;;;;;;;9.80;99.90;;;;;;5104693;27;19930;-87
2021/12/15 04:44:25;;;;;;;;;;;9.80;99.90;;;;;;5103631;27;19930;-87
2021/12/15 04:46:59;;;;;;;;;;;9.80;99.90;;;;;;5100880;27;19927;-87
2021/12/15 04:49:25;;;;;;;;;;;9.80;99.90;;;;;;5134818;27;20023;-87
2021/12/15 04:51:51;;;;;;;;;;;9.80;99.90;;;;;;5101095;27;19927;-88
2021/12/15 04:54:17;;;;;;;;;;;9.80;99.90;;;;;;5092420;27;19924;-88
2021/12/15 04:56:43;;;;;;;;;;;9.80;99.90;;;;;;5100602;27;19983;-88
2021/12/15 04:59:09;;;;;;;;;;;9.80;99.90;;;;;;5084065;27;19928;-87
2021/12/15 05:01:35;;;;;;;;;;;9.80;99.90;;;;;;5100521;27;19930;-88
2021/12/15 05:04:00;;;;;;;;;;;9.80;99.90;;;;;;5087674;27;19933;-87
2021/12/15 05:06:26;;;;;;;;;;;9.80;99.90;;;;;;5121284;27;19923;-88
2021/12/15 05:08:52;;;;;;;;;;;9.80;99.90;;;;;;5100967;27;19930;-88
2021/12/15 05:11:17;;;;;;;;;;;9.80;99.90;;;;;;5100625;27;19923;-88
2021/12/15 05:13:43;;;;;;;;;;;9.90;99.90;;;;;;5100358;27;20026;-88
2021/12/15 05:16:09;;;;;;;;;;;9.90;99.90;;;;;;5108405;27;19930;-87
2021/12/15 05:18:34;;;;;;;;;;;9.80;99.90;;;;;;5100141;27;20154;-87
2021/12/15 05:21:00;;;;;;;;;;;9.80;99.90;;;;;;5109020;27;19923;-87
2021/12/15 05:23:30;;;;;;;;;;;9.80;99.90;;;;;;5121616;27;19924;-89
2021/12/15 05:25:56;;;;;;;;;;;9.80;99.90;;;;;;5125435;27;19969;-87
2021/12/15 05:28:21;;;;;;;;;;;9.80;99.90;;;;;;5100412;27;19923;-88
2021/12/15 05:30:47;;;;;;;;;;;9.80;99.90;;;;;;5116388;27;19923;-87
2021/12/15 05:33:13;;;;;;;;;;;9.80;99.90;;;;;;5100236;27;19923;-87
2021/12/15 05:35:39;;;;;;;;;;;9.80;99.90;;;;;;5102883;27;19931;-88
2021/12/15 05:38:06;;;;;;;;;;;9.80;99.90;;;;;;5101134;27;20355;-86
2021/12/15 05:40:31;;;;;;;;;;;9.80;99.90;;;;;;5118028;27;19934;-86
2021/12/15 05:42:57;;;;;;;;;;;9.80;99.90;;;;;;5117084;27;19923;-87
2021/12/15 05:45:24;;;;;;;;;;;9.80;99.90;;;;;;5136223;27;19930;-86
2021/12/15 05:47:49;;;;;;;;;;;9.80;99.90;;;;;;5118697;27;20006;-87
2021/12/15 05:50:15;;;;;;;;;;;9.80;99.90;;;;;;5116362;27;19977;-86
2021/12/15 05:52:41;;;;;;;;;;;9.80;99.90;;;;;;5119323;27;19923;-87
2021/12/15 05:55:08;;;;;;;;;;;9.80;99.90;;;;;;5136933;27;19971;-87
2021/12/15 05:57:34;;;;;;;;;;;9.80;99.90;;;;;;5136403;27;20002;-87
2021/12/15 05:59:59;;;;;;;;;;;9.80;99.90;;;;;;5134649;27;20052;-87
2021/12/15 06:02:25;;;;;;;;;;;9.80;99.90;;;;;;5136720;27;19919;-87
2021/12/15 06:04:51;;;;;;;;;;;9.80;99.90;;;;;;5119578;27;19954;-87
2021/12/15 06:07:16;;;;;;;;;;;9.80;99.90;;;;;;5119431;27;19919;-86
2021/12/15 06:09:42;;;;;;;;;;;9.80;99.90;;;;;;5094453;27;19941;-86
2021/12/15 06:12:09;;;;;;;;;;;9.80;99.90;;;;;;5119584;27;19922;-86
2021/12/15 06:14:34;;;;;;;;;;;9.80;99.90;;;;;;5122368;27;19919;-87
2021/12/15 06:17:02;;;;;;;;;;;9.80;99.90;;;;;;5119564;27;19975;-87
2021/12/15 06:19:28;;;;;;;;;;;9.80;99.90;;;;;;5118717;27;19923;-87
2021/12/15 06:21:53;;;;;;;;;;;9.80;99.90;;;;;;5119331;27;20259;-86
2021/12/15 06:24:19;;;;;;;;;;;9.80;99.90;;;;;;5119807;27;19919;-87
2021/12/15 06:26:45;;;;;;;;;;;9.80;99.90;;;;;;5119088;27;20362;-86
2021/12/15 06:29:10;;;;;;;;;;;9.80;99.90;;;;;;5101213;27;21357;-86
2021/12/15 06:31:38;;;;;;;;;;;9.80;99.90;;;;;;5091370;27;19935;-85
2021/12/15 06:34:04;;;;;;;;;;;9.80;99.90;;;;;;5118329;27;20443;-86
2021/12/15 06:36:30;;;;;;;;;;;9.80;99.90;;;;;;5118916;27;20010;-86
2021/12/15 06:38:56;;;;;;;;;;;9.90;99.90;;;;;;5135849;27;21297;-86
2021/12/15 06:41:22;;;;;;;;;;;9.80;99.90;;;;;;5133378;27;20375;-86
2021/12/15 06:43:51;;;;;;;;;;;9.80;99.90;;;;;;5140172;27;20014;-86
2021/12/15 06:59:40;;;;;;;;;;;9.80;99.90;;;;;;5139572;27;19942;-87
2021/12/15 07:02:06;;;;;;;;;;;9.80;99.90;;;;;;5112609;27;20371;-89
2021/12/15 07:04:31;;;;;;;;;;;9.70;99.90;;;;;;5118214;27;19962;-91
2021/12/15 07:06:57;;;;;;;;;;;9.80;99.90;;;;;;5106678;27;19927;-90
2021/12/15 07:09:22;;;;;;;;;;;9.80;99.90;;;;;;5118655;27;19923;-87
2021/12/15 07:11:50;;;;;;;;;;;9.80;99.90;;;;;;5120672;27;19946;-88
2021/12/15 07:14:17;;;;;;;;;;;9.80;99.90;;;;;;5118820;27;19924;-85
2021/12/15 07:16:45;;;;;;;;;;;9.70;99.90;;;;;;5123244;27;19930;-94
2021/12/15 07:19:33;;;;;;;;;;;9.80;99.90;;;;;;5140793;27;19927;-90
2021/12/15 07:22:15;;;;;;;;;;;9.70;99.90;;;;;;5126467;27;19926;-89
2021/12/15 07:24:41;;;;;;;;;;;9.70;99.90;;;;;;5120777;27;19931;-94
2021/12/15 07:27:07;;;;;;;;;;;9.70;99.90;;;;;;5128110;27;19919;-90
2021/12/15 07:29:33;;;;;;;;;;;9.60;99.90;;;;;;5122496;27;19983;-90
2021/12/15 07:31:59;;;;;;;;;;;9.60;99.90;;;;;;5139907;27;19998;-88
2021/12/15 07:34:25;;;;;;;;;;;9.60;99.90;;;;;;5139603;27;19919;-87
2021/12/15 07:36:51;;;;;;;;;;;9.60;99.90;;;;;;5121495;27;19923;-86
2021/12/15 07:39:16;;;;;;;;;;;9.60;99.90;;;;;;5122830;27;19920;-86
2021/12/15 07:41:50;;;;;;;;;;;9.60;99.90;;;;;;5119995;27;19926;-87
2021/12/15 07:44:16;;;;;;;;;;;9.50;99.90;;;;;;5104939;28;19927;-87
2021/12/15 07:46:43;;;;;;;;;;;9.50;99.90;;;;;;5099520;28;19956;-87
2021/12/15 07:49:08;;;;;;;;;;;9.40;99.90;;;;;;5082259;28;19919;-87
2021/12/15 07:51:34;;;;;;;;;;;9.40;99.90;;;;;;5099103;28;19919;-87
2021/12/15 07:54:00;;;;;;;;;;;9.40;99.90;;;;;;5128999;27;20272;-87
2021/12/15 07:56:25;;;;;;;;;;;9.40;99.90;;;;;;5104180;27;19920;-87
2021/12/15 07:58:51;;;;;;;;;;;9.40;99.90;;;;;;5104931;27;19930;-88
2021/12/15 08:01:18;;;;;;;;;;;9.30;99.90;;;;;;5120348;27;20011;-82
2021/12/15 08:03:44;;;;;;;;;;;9.30;99.90;;;;;;5100911;27;20006;-82
2021/12/15 08:06:10;;;;;;;;;;;9.30;99.90;;;;;;5098352;27;20066;-84
2021/12/15 08:08:35;;;;;;;;;;;9.30;99.90;;;;;;5115256;27;19919;-86
2021/12/15 08:11:01;;;;;;;;;;;9.20;99.90;;;;;;5119355;27;19927;-88
2021/12/15 08:13:28;;;;;;;;;;;9.20;99.90;;;;;;5119221;27;19924;-89
2021/12/15 08:15:53;;;;;;;;;;;9.20;99.90;;;;;;5117466;27;19923;-88
2021/12/15 08:18:19;;;;;;;;;;;9.20;99.90;;;;;;5136637;27;19946;-87
2021/12/15 08:20:45;;;;;;;;;;;9.20;99.90;;;;;;5137028;27;20018;-88
2021/12/15 08:23:11;;;;;;;;;;;9.30;99.90;;;;;;5098692;28;19978;-89
2021/12/15 08:25:38;;;;;;;;;;;9.20;99.90;;;;;;5111430;27;19920;-89
2021/12/15 08:28:05;;;;;;;;;;;9.20;99.90;;;;;;5089691;28;19920;-87
2021/12/15 08:30:31;;;;;;;;;;;9.20;99.90;;;;;;5132781;27;19924;-89
2021/12/15 08:32:59;;;;;;;;;;;9.30;99.90;;;;;;5135690;27;19923;-88
2021/12/15 08:35:27;;;;;;;;;;;9.20;99.90;;;;;;5106339;27;19923;-85
2021/12/15 08:37:54;;;;;;;;;;;9.20;99.90;;;;;;5133724;27;19923;-87
2021/12/15 08:40:20;;;;;;;;;;;9.20;99.90;;;;;;5115409;27;19932;-87
2021/12/15 08:42:46;;;;;;;;;;;9.20;99.90;;;;;;5110240;27;19931;-88
2021/12/15 08:45:12;;;;;;;;;;;9.20;99.90;;;;;;5115206;27;19930;-90
2021/12/15 08:47:38;;;;;;;;;;;9.20;99.90;;;;;;5094853;27;20011;-86
2021/12/15 08:50:06;;;;;;;;;;;9.20;99.90;;;;;;5113892;28;19963;-88
2021/12/15 08:52:32;;;;;;;;;;;9.30;99.90;;;;;;5115865;27;19989;-89
2021/12/15 08:54:58;;;;;;;;;;;9.30;99.90;;;;;;5117351;27;20325;-88
2021/12/15 08:57:23;;;;;;;;;;;9.30;99.90;;;;;;5117196;27;19951;-88
2021/12/15 08:59:49;;;;;;;;;;;9.30;99.90;;;;;;5098015;27;19923;-85
2021/12/15 09:02:15;;;;;;;;;;;9.40;99.90;;;;;;5098891;27;20010;-88
2021/12/15 09:04:40;;;;;;;;;;;9.40;99.90;;;;;;5129277;27;20306;-83
2021/12/15 09:07:06;;;;;;;;;;;9.40;99.90;;;;;;5113468;27;19923;-85
2021/12/15 09:09:32;;;;;;;;;;;9.40;99.90;;;;;;5113430;28;19931;-86
2021/12/15 09:11:58;;;;;;;;;;;9.50;99.90;;;;;;5133767;27;19929;-84
2021/12/15 09:14:23;;;;;;;;;;;9.50;99.90;;;;;;5133772;27;20046;-85
2021/12/15 09:16:51;;;;;;;;;;;9.50;99.90;;;;;;5116898;27;19923;-88
2021/12/15 09:19:17;;;;;;;;;;;9.50;99.90;;;;;;5130312;27;19923;-84
2021/12/15 09:21:42;;;;;;;;;;;9.60;99.90;;;;;;5091333;27;19993;-84
2021/12/15 09:24:09;;;;;;;;;;;9.60;99.90;;;;;;5116790;27;19923;-84
2021/12/15 09:26:35;;;;;;;;;;;9.60;99.90;;;;;;5116739;27;20011;-85
2021/12/15 09:29:01;;;;;;;;;;;9.60;99.90;;;;;;5096878;27;20014;-85
2021/12/15 09:31:27;;;;;;;;;;;9.70;99.90;;;;;;5083774;27;20408;-82
2021/12/15 09:33:53;;;;;;;;;;;9.70;99.90;;;;;;5098785;27;19924;-85
2021/12/15 09:36:21;;;;;;;;;;;9.70;99.90;;;;;;5088840;28;20214;-82
2021/12/15 09:38:49;;;;;;;;;;;9.70;99.90;;;;;;5113179;28;19924;-82
2021/12/15 09:41:17;;;;;;;;;;;9.80;99.90;;;;;;5112809;28;20407;-83
2021/12/15 09:43:43;;;;;;;;;;;9.80;99.90;;;;;;5095996;28;20303;-83
2021/12/15 09:57:49;;;;;;;;;;;10.00;99.90;;;;;;5133465;28;19923;-82
2021/12/15 10:03:02;;;;;;;;;;;10.00;99.90;;;;;;5118865;28;19935;-81
2021/12/15 10:18:51;;;;;;;;;;;10.00;99.90;;;;;;5136984;27;20278;-85
2021/12/15 10:21:21;;;;;;;;;;;10.00;99.90;;;;;;5136293;27;19926;-84
2021/12/15 10:23:50;;;;;;;;;;;10.00;99.90;;;;;;5119660;27;20348;-84
2021/12/15 10:26:15;;;;;;;;;;;10.00;99.90;;;;;;5119532;27;20566;-85
2021/12/15 10:28:43;;;;;;;;;;;9.90;99.90;;;;;;5119910;27;20010;-85
2021/12/15 10:31:12;;;;;;;;;;;10.00;99.90;;;;;;5136401;27;20022;-85
2021/12/15 10:33:43;;;;;;;;;;;10.00;99.90;;;;;;5119694;27;19930;-85
2021/12/15 10:36:17;;;;;;;;;;;10.00;99.90;;;;;;5119257;27;19923;-84
2021/12/15 10:38:45;;;;;;;;;;;10.00;99.90;;;;;;5119508;27;19981;-85
2021/12/15 10:41:11;;;;;;;;;;;10.00;99.90;;;;;;5136261;27;20481;-84
2021/12/15 10:43:54;;;;;;;;;;;10.00;99.90;;;;;;5119624;27;19972;-84
2021/12/15 10:46:28;;;;;;;;;;;10.00;99.90;;;;;;5118800;27;20013;-85
2021/12/15 10:48:54;;;;;;;;;;;10.00;99.90;;;;;;5119661;27;19923;-85
2021/12/15 10:51:38;;;;;;;;;;;10.00;99.90;;;;;;5119204;27;19927;-84
2021/12/15 10:54:04;;;;;;;;;;;10.00;99.90;;;;;;5119033;27;19923;-82
2021/12/15 10:56:32;;;;;;;;;;;10.00;99.90;;;;;;5136754;27;19972;-83
2021/12/15 10:59:00;;;;;;;;;;;10.00;99.90;;;;;;5136419;27;19930;-83
2021/12/15 11:01:37;;;;;;;;;;;10.00;99.90;;;;;;5119063;27;19973;-85
2021/12/15 11:04:12;;;;;;;;;;;9.90;99.90;;;;;;5135822;27;19931;-84
2021/12/15 11:06:38;;;;;;;;;;;9.90;99.90;;;;;;5118949;27;19966;-84
2021/12/15 11:09:30;;;;;;;;;;;10.00;99.90;;;;;;5118719;27;20331;-84
2021/12/15 11:11:57;;;;;;;;;;;10.10;99.90;;;;;;5115521;27;19927;-87
2021/12/15 11:14:24;;;;;;;;;;;10.20;99.90;;;;;;5136297;27;20013;-84
2021/12/15 11:17:07;;;;;;;;;;;10.20;99.90;;;;;;5112741;27;20000;-84
2021/12/15 11:19:38;;;;;;;;;;;10.30;99.90;;;;;;5115815;27;19951;-83
2021/12/15 11:22:23;;;;;;;;;;;10.50;99.90;;;;;;5112785;27;19931;-84
2021/12/15 11:24:48;;;;;;;;;;;10.60;99.90;;;;;;5134238;27;20018;-83
2021/12/15 11:27:17;;;;;;;;;;;10.80;99.90;;;;;;5130480;27;20105;-85
2021/12/15 11:29:43;;;;;;;;;;;11.10;99.90;;;;;;5124826;27;20314;-83
2021/12/15 11:32:28;;;;;;;;;;;11.60;99.90;;;;;;5099610;28;19924;-85
2021/12/15 11:35:05;;;;;;;;;;;11.80;99.90;;;;;;5110971;27;19924;-83
2021/12/15 11:37:49;;;;;;;;;;;12.10;99.90;;;;;;5100320;28;19935;-84
2021/12/15 11:40:16;;;;;;;;;;;12.00;99.90;;;;;;5099202;28;19932;-86
2021/12/15 11:42:43;;;;;;;;;;;11.90;99.90;;;;;;5087548;28;21488;-85
2021/12/15 11:45:10;;;;;;;;;;;11.60;99.90;;;;;;5095007;28;20018;-84
2021/12/15 11:47:37;;;;;;;;;;;11.30;99.90;;;;;;5093166;28;19980;-85
2021/12/15 11:50:10;;;;;;;;;;;11.40;99.90;;;;;;5112728;28;19923;-85
2021/12/15 11:52:39;;;;;;;;;;;11.70;99.90;;;;;;5092271;28;19928;-85
2021/12/15 11:55:05;;;;;;;;;;;11.90;99.90;;;;;;5088898;28;20001;-85
2021/12/15 11:57:31;;;;;;;;;;;11.90;99.90;;;;;;5074168;28;19963;-85
2021/12/15 12:00:05;;;;;;;;;;;11.80;99.90;;;;;;5095161;28;19970;-85
2021/12/15 12:02:33;;;;;;;;;;;11.80;99.90;;;;;;5112072;28;20390;-85
2021/12/15 12:05:00;;;;;;;;;;;11.80;99.90;;;;;;5114162;28;19928;-85
2021/12/15 12:07:34;;;;;;;;;;;11.70;99.90;;;;;;5096474;28;19973;-85
2021/12/15 12:10:10;;;;;;;;;;;11.50;99.90;;;;;;5093008;28;20031;-85
2021/12/15 12:12:40;;;;;;;;;;;11.50;99.90;;;;;;5093769;28;19932;-85
2021/12/15 12:15:08;;;;;;;;;;;11.60;99.90;;;;;;5097446;28;20342;-85
2021/12/15 12:17:35;;;;;;;;;;;11.80;99.90;;;;;;5095686;28;19923;-85
2021/12/15 12:20:04;;;;;;;;;;;12.00;99.90;;;;;;5097378;28;19928;-85
2021/12/15 12:22:31;;;;;;;;;;;12.00;99.90;;;;;;5114249;28;19924;-84
2021/12/15 12:24:57;;;;;;;;;;;12.00;99.90;;;;;;5097505;28;19971;-85
2021/12/15 12:27:25;;;;;;;;;;;11.70;99.90;;;;;;5113140;28;19938;-85
2021/12/15 12:29:55;;;;;;;;;;;11.50;99.90;;;;;;5113955;28;19927;-85
2021/12/15 12:32:21;;;;;;;;;;;11.20;99.90;;;;;;5113898;28;19980;-85
2021/12/15 12:34:47;;;;;;;;;;;11.10;99.90;;;;;;5080069;28;19923;-85
2021/12/15 12:37:14;;;;;;;;;;;11.00;99.90;;;;;;5116035;27;19930;-85
2021/12/15 12:39:41;;;;;;;;;;;10.90;99.90;;;;;;5133643;27;19933;-85
2021/12/15 12:42:07;;;;;;;;;;;10.90;99.90;;;;;;5134331;27;19924;-87
2021/12/15 12:44:40;;;;;;;;;;;10.90;99.90;;;;;;5117552;27;19923;-85
2021/12/15 12:47:20;;;;;;;;;;;10.90;99.90;;;;;;5134204;27;20291;-85
2021/12/15 12:50:14;;;;;;;;;;;10.80;99.90;;;;;;5116517;27;19924;-86
2021/12/15 13:01:16;;;;;;;;;;;11.00;99.90;;;;;;5110580;27;20015;-87
2021/12/15 13:03:45;;;;;;;;;;;11.30;99.90;;;;;;5115670;27;19924;-85
2021/12/15 13:06:16;;;;;;;;;;;11.40;99.90;;;;;;5112794;27;19934;-85
2021/12/15 13:08:43;;;;;;;;;;;11.50;99.90;;;;;;5133801;27;19978;-85
2021/12/15 13:11:22;;;;;;;;;;;11.60;99.90;;;;;;5133181;27;19923;-85
2021/12/15 13:13:56;;;;;;;;;;;11.60;99.90;;;;;;5116330;27;19970;-85
2021/12/15 13:16:25;;;;;;;;;;;11.50;99.90;;;;;;5116179;27;19923;-84
2021/12/15 13:18:55;;;;;;;;;;;11.30;99.90;;;;;;5133537;27;20276;-85
2021/12/15 13:21:40;;;;;;;;;;;11.10;99.90;;;;;;5116084;27;19934;-83
2021/12/15 13:24:11;;;;;;;;;;;11.00;99.90;;;;;;5133923;27;19935;-83
2021/12/15 13:29:36;;;;;;;;;;;10.80;99.90;;;;;;5133665;27;20625;-84
2021/12/15 13:32:02;;;;;;;;;;;10.70;99.90;;;;;;5116599;27;19923;-85
2021/12/15 13:34:35;;;;;;;;;;;10.70;99.90;;;;;;5115809;27;19924;-84
2021/12/15 13:37:01;;;;;;;;;;;10.70;99.90;;;;;;5116047;27;19931;-83
2021/12/15 13:39:39;;;;;;;;;;;10.60;99.90;;;;;;5116646;27;19924;-83
2021/12/15 13:42:12;;;;;;;;;;;10.60;99.90;;;;;;5116717;27;19974;-85
2021/12/15 13:44:42;;;;;;;;;;;10.60;99.90;;;;;;5132660;27;19956;-85
2021/12/15 13:47:09;;;;;;;;;;;10.50;99.90;;;;;;5133300;27;20372;-85
2021/12/15 13:49:53;;;;;;;;;;;10.50;99.90;;;;;;5115026;27;20086;-84
2021/12/15 13:52:18;;;;;;;;;;;10.40;99.90;;;;;;5131502;27;19923;-84
2021/12/15 13:54:44;;;;;;;;;;;10.30;99.90;;;;;;5115707;27;19988;-84
2021/12/15 13:57:13;;;;;;;;;;;10.30;99.90;;;;;;5115488;28;20261;-84
2021/12/15 13:59:40;;;;;;;;;;;10.20;99.90;;;;;;5120503;28;19963;-83
2021/12/15 14:02:10;;;;;;;;;;;10.10;99.90;;;;;;5144791;28;20010;-87
2021/12/15 14:04:56;;;;;;;;;;;10.10;99.90;;;;;;5124513;28;19923;-86
2021/12/15 14:07:27;;;;;;;;;;;10.10;99.90;;;;;;5142078;28;19951;-87
2021/12/15 14:10:01;;;;;;;;;;;10.00;99.90;;;;;;5127084;28;19924;-87
2021/12/15 14:12:45;;;;;;;;;;;9.90;99.90;;;;;;5126094;28;19924;-87
2021/12/15 14:15:29;;;;;;;;;;;9.90;99.90;;;;;;5140049;28;19928;-86
2021/12/15 14:18:15;;;;;;;;;;;9.80;99.90;;;;;;5141328;28;19935;-86
2021/12/15 14:20:46;;;;;;;;;;;9.70;99.90;;;;;;5120566;28;19934;-85
2021/12/15 14:23:17;;;;;;;;;;;9.70;99.90;;;;;;5117083;28;19927;-86
2021/12/15 14:25:43;;;;;;;;;;;9.60;99.90;;;;;;5121951;28;20006;-86
2021/12/15 14:28:13;;;;;;;;;;;9.50;99.90;;;;;;5095833;28;19924;-86
2021/12/15 14:30:39;;;;;;;;;;;9.50;99.90;;;;;;5127813;28;19945;-85
2021/12/15 14:33:19;;;;;;;;;;;9.50;99.90;;;;;;5115174;28;20384;-85
2021/12/15 14:35:44;;;;;;;;;;;9.50;99.90;;;;;;5132468;28;19927;-86
2021/12/15 14:38:10;;;;;;;;;;;9.50;99.90;;;;;;5115054;28;19923;-87
2021/12/15 14:40:35;;;;;;;;;;;9.50;99.90;;;;;;5114843;28;19958;-85
2021/12/15 14:43:01;;;;;;;;;;;9.50;99.90;;;;;;5115455;28;19927;-86
2021/12/15 14:45:27;;;;;;;;;;;9.50;99.90;;;;;;5094961;28;20352;-85
2021/12/15 14:47:53;;;;;;;;;;;9.50;99.90;;;;;;5129690;28;19959;-85
2021/12/15 14:50:18;;;;;;;;;;;9.50;99.90;;;;;;5115395;28;19923;-86
2021/12/15 14:52:47;;;;;;;;;;;9.50;99.90;;;;;;5114790;28;19927;-86
2021/12/15 14:55:15;;;;;;;;;;;9.50;99.90;;;;;;5115654;28;20067;-86
2021/12/15 14:57:40;;;;;;;;;;;9.50;99.90;;;;;;5114890;28;19946;-86
2021/12/15 15:00:13;;;;;;;;;;;9.50;99.90;;;;;;5097908;28;20356;-86
2021/12/15 15:02:43;;;;;;;;;;;9.50;99.90;;;;;;5131992;27;20374;-86
2021/12/15 15:05:15;;;;;;;;;;;9.50;99.90;;;;;;5119023;27;19979;-86
2021/12/15 15:07:43;;;;;;;;;;;9.50;99.90;;;;;;5135913;27;19942;-85
2021/12/15 15:10:10;;;;;;;;;;;9.50;99.90;;;;;;5118889;27;19930;-85
2021/12/15 15:12:37;;;;;;;;;;;9.50;99.90;;;;;;5135770;27;19923;-86
2021/12/15 15:15:05;;;;;;;;;;;9.50;99.90;;;;;;5136611;27;19957;-85
2021/12/15 15:17:48;;;;;;;;;;;9.50;99.90;;;;;;5136002;27;20292;-87
2021/12/15 15:20:34;;;;;;;;;;;9.40;99.90;;;;;;5118847;27;19984;-86
2021/12/15 15:23:04;;;;;;;;;;;9.30;99.90;;;;;;5136456;27;19924;-82
2021/12/15 15:25:32;;;;;;;;;;;9.30;99.90;;;;;;5136404;27;19936;-83
2021/12/15 15:28:05;;;;;;;;;;;9.20;99.90;;;;;;5119058;27;19923;-82
2021/12/15 15:30:31;;;;;;;;;;;9.10;99.90;;;;;;5136311;27;19927;-83
2021/12/15 15:32:58;;;;;;;;;;;9.10;99.90;;;;;;5118764;27;19924;-82
2021/12/15 15:35:29;;;;;;;;;;;9.00;99.90;;;;;;5118673;27;19931;-82
2021/12/15 15:37:56;;;;;;;;;;;9.00;99.90;;;;;;5119034;27;19976;-82
2021/12/15 15:40:21;;;;;;;;;;;8.90;99.90;;;;;;5119105;27;19941;-82
2021/12/15 15:42:51;;;;;;;;;;;8.90;99.90;;;;;;5118719;27;19919;-82
2021/12/15 15:45:25;;;;;;;;;;;8.80;99.90;;;;;;5135967;27;19928;-82
2021/12/15 15:47:51;;;;;;;;;;;8.80;99.90;;;;;;5115157;28;19936;-83
2021/12/15 15:50:17;;;;;;;;;;;8.80;99.90;;;;;;5081613;28;19923;-82
2021/12/15 15:52:47;;;;;;;;;;;8.70;99.90;;;;;;5114729;28;19931;-82
2021/12/15 15:55:13;;;;;;;;;;;8.60;99.90;;;;;;5110730;27;20002;-82
2021/12/15 15:57:44;;;;;;;;;;;8.60;99.90;;;;;;5116795;27;19963;-82
2021/12/15 16:00:13;;;;;;;;;;;8.60;99.90;;;;;;5135343;27;19924;-82